Time;durP1;ratioP1;P1;durP2;ratioP2;P2;SDS_P1;SDS_P2;PMS_P1;PMS_P2;Temp;Humidity;BMP_temperature;BMP_pressure;BME280_temperature;BME280_humidity;BME280_pressure;Samples;Min_cycle;Max_cycle;Signal;HPM_P1;HPM_P2
2022/12/24 00:00:51;;;;;;;54.72;29.30;;;;;;;;;;775118;180;914238;-61
2022/12/24 00:03:16;;;;;;;106.07;27.37;;;;;;;;;;771796;180;918733;-61
2022/12/24 00:05:42;;;;;;;88.27;29.60;;;;;;;;;;767633;180;919679;-62
2022/12/24 00:08:08;;;;;;;128.00;33.47;;;;;;;;;;774174;181;919076;-62
2022/12/24 00:10:34;;;;;;;79.87;24.27;;;;;;;;;;767217;181;922513;-62
2022/12/24 00:13:00;;;;;;;119.37;28.83;;;;;;;;;;770286;180;943194;-62
2022/12/24 00:15:26;;;;;;;148.03;26.90;;;;;;;;;;765337;181;921080;-62
2022/12/24 00:17:52;;;;;;;113.07;25.80;;;;;;;;;;767966;182;918923;-62
2022/12/24 00:20:18;;;;;;;57.67;20.40;;;;;;;;;;768097;180;920300;-62
2022/12/24 00:22:45;;;;;;;103.50;24.47;;;;;;;;;;773730;180;919847;-63
2022/12/24 00:25:11;;;;;;;99.40;23.53;;;;;;;;;;779197;178;919148;-62
2022/12/24 00:27:37;;;;;;;19.50;11.80;;;;;;;;;;769478;181;919549;-63
2022/12/24 00:30:03;;;;;;;11.33;7.13;;;;;;;;;;770592;181;921226;-63
2022/12/24 00:32:28;;;;;;;7.53;5.97;;;;;;;;;;776859;181;818929;-63
2022/12/24 00:34:55;;;;;;;8.70;5.23;;;;;;;;;;770289;181;919533;-63
2022/12/24 00:37:21;;;;;;;7.53;5.03;;;;;;;;;;772793;180;921347;-63
2022/12/24 00:39:47;;;;;;;7.90;5.97;;;;;;;;;;771072;180;919187;-63
2022/12/24 00:42:12;;;;;;;8.43;5.22;;;;;;;;;;774677;181;816380;-62
2022/12/24 00:44:38;;;;;;;8.60;6.13;;;;;;;;;;771984;181;919546;-62
2022/12/24 00:47:04;;;;;;;6.00;4.70;;;;;;;;;;774364;180;919314;-63
2022/12/24 00:49:30;;;;;;;8.03;5.43;;;;;;;;;;777569;180;918844;-63
2022/12/24 00:51:56;;;;;;;8.67;5.40;;;;;;;;;;771906;180;919094;-63
2022/12/24 00:54:22;;;;;;;8.00;5.37;;;;;;;;;;772708;180;940880;-63
2022/12/24 00:56:49;;;;;;;10.17;6.77;;;;;;;;;;767025;180;919218;-64
2022/12/24 00:59:15;;;;;;;8.25;6.85;;;;;;;;;;761826;183;918289;-63
2022/12/24 01:01:41;;;;;;;8.53;5.60;;;;;;;;;;772871;181;616741;-64
2022/12/24 01:06:38;;;;;;;7.37;4.77;;;;;;;;;;775643;181;816516;-63
2022/12/24 01:09:04;;;;;;;8.50;6.30;;;;;;;;;;771270;181;914954;-63
2022/12/24 01:11:30;;;;;;;9.50;7.05;;;;;;;;;;766364;181;918802;-64
2022/12/24 01:13:56;;;;;;;8.98;7.60;;;;;;;;;;765325;181;917735;-63
2022/12/24 01:16:22;;;;;;;10.10;7.90;;;;;;;;;;762836;181;916622;-63
2022/12/24 01:18:48;;;;;;;10.80;8.50;;;;;;;;;;759305;181;904903;-64
2022/12/24 01:21:14;;;;;;;12.60;7.47;;;;;;;;;;769729;180;918953;-64
2022/12/24 01:23:40;;;;;;;10.57;7.90;;;;;;;;;;779719;181;619169;-64
2022/12/24 01:26:06;;;;;;;8.33;6.80;;;;;;;;;;767789;181;917972;-64
2022/12/24 01:28:32;;;;;;;11.93;8.50;;;;;;;;;;769863;179;918795;-64
2022/12/24 01:30:58;;;;;;;14.37;8.57;;;;;;;;;;778557;179;917155;-64
2022/12/24 01:33:23;;;;;;;9.00;6.77;;;;;;;;;;764760;181;914629;-64
2022/12/24 01:35:49;;;;;;;14.45;8.88;;;;;;;;;;765627;180;921489;-64
2022/12/24 01:38:15;;;;;;;9.57;7.53;;;;;;;;;;765075;183;919619;-64
2022/12/24 01:45:45;;;;;;;12.70;9.20;;;;;;;;;;769519;180;918460;-65
2022/12/24 01:48:12;;;;;;;12.53;9.13;;;;;;;;;;772429;180;920648;-64
2022/12/24 01:50:37;;;;;;;11.20;8.43;;;;;;;;;;773561;180;919869;-65
2022/12/24 01:53:03;;;;;;;11.03;8.60;;;;;;;;;;771448;180;819452;-65
2022/12/24 01:55:29;;;;;;;13.10;9.47;;;;;;;;;;761603;180;918229;-66
2022/12/24 01:57:55;;;;;;;10.13;7.83;;;;;;;;;;776126;181;919486;-65
2022/12/24 02:00:21;;;;;;;13.00;9.83;;;;;;;;;;770661;181;919378;-65
2022/12/24 02:02:47;;;;;;;12.33;10.03;;;;;;;;;;767165;180;917533;-65
2022/12/24 02:05:13;;;;;;;14.40;10.40;;;;;;;;;;775901;181;919479;-65
2022/12/24 02:07:39;;;;;;;13.37;9.50;;;;;;;;;;768665;181;919350;-64
2022/12/24 02:10:06;;;;;;;13.53;10.00;;;;;;;;;;761840;182;918231;-65
2022/12/24 02:12:32;;;;;;;12.80;10.30;;;;;;;;;;765517;181;821031;-66
2022/12/24 02:14:58;;;;;;;11.93;9.23;;;;;;;;;;763751;181;918428;-65
2022/12/24 02:17:24;;;;;;;13.63;10.90;;;;;;;;;;768470;181;921453;-65
2022/12/24 02:20:07;;;;;;;16.37;11.07;;;;;;;;;;766147;181;911969;-66
2022/12/24 02:22:33;;;;;;;23.93;11.30;;;;;;;;;;759677;183;916664;-65
2022/12/24 02:25:03;;;;;;;16.40;10.60;;;;;;;;;;772118;180;921291;-65
2022/12/24 02:27:29;;;;;;;14.40;11.03;;;;;;;;;;757428;183;917793;-64
2022/12/24 02:29:55;;;;;;;17.00;12.27;;;;;;;;;;766605;181;921837;-65
2022/12/24 02:32:21;;;;;;;16.97;10.80;;;;;;;;;;767426;181;901140;-65
2022/12/24 02:34:47;;;;;;;18.13;13.30;;;;;;;;;;768671;179;914671;-64
2022/12/24 02:37:13;;;;;;;21.52;11.20;;;;;;;;;;764456;183;921753;-65
2022/12/24 02:39:53;;;;;;;19.57;11.80;;;;;;;;;;769129;180;839384;-65
2022/12/24 02:42:20;;;;;;;16.37;11.67;;;;;;;;;;772363;180;916549;-65
2022/12/24 02:44:46;;;;;;;17.20;12.93;;;;;;;;;;770761;182;817089;-65
2022/12/24 02:47:12;;;;;;;25.13;11.73;;;;;;;;;;770466;180;916418;-65
2022/12/24 02:49:38;;;;;;;31.73;11.77;;;;;;;;;;774631;180;816337;-65
2022/12/24 02:52:03;;;;;;;154.70;20.97;;;;;;;;;;778510;180;870625;-65
2022/12/24 02:54:29;;;;;;;17.23;11.17;;;;;;;;;;772308;180;917789;-65
2022/12/24 02:57:00;;;;;;;73.93;15.43;;;;;;;;;;769548;180;919397;-65
2022/12/24 02:59:44;;;;;;;25.95;10.23;;;;;;;;;;767107;181;917450;-65
2022/12/24 03:02:27;;;;;;;92.13;15.70;;;;;;;;;;765254;183;916808;-65
2022/12/24 03:04:56;;;;;;;23.13;11.40;;;;;;;;;;756561;181;916257;-65
2022/12/24 03:07:23;;;;;;;146.52;21.15;;;;;;;;;;775600;180;908981;-65
2022/12/24 03:10:03;;;;;;;130.93;19.47;;;;;;;;;;762070;181;919466;-64
2022/12/24 03:12:31;;;;;;;54.47;14.47;;;;;;;;;;756118;183;916085;-66
2022/12/24 03:14:57;;;;;;;35.23;11.90;;;;;;;;;;762191;183;922178;-67
2022/12/24 03:17:23;;;;;;;118.40;19.63;;;;;;;;;;775661;180;914232;-65
2022/12/24 03:19:49;;;;;;;74.47;16.20;;;;;;;;;;773814;181;920584;-66
2022/12/24 03:22:14;;;;;;;13.37;8.10;;;;;;;;;;763532;181;920973;-65
2022/12/24 03:24:41;;;;;;;118.03;17.62;;;;;;;;;;773256;181;818710;-65
2022/12/24 03:27:07;;;;;;;146.83;21.90;;;;;;;;;;769001;183;818281;-64
2022/12/24 03:29:32;;;;;;;77.30;14.37;;;;;;;;;;774226;180;919757;-65
2022/12/24 03:31:58;;;;;;;113.57;16.45;;;;;;;;;;762345;181;919280;-65
2022/12/24 03:34:24;;;;;;;91.20;15.80;;;;;;;;;;774401;181;910197;-64
2022/12/24 03:36:50;;;;;;;42.60;12.67;;;;;;;;;;767327;181;813275;-64
2022/12/24 03:39:16;;;;;;;90.80;15.97;;;;;;;;;;764868;181;919219;-65
2022/12/24 03:41:42;;;;;;;208.47;22.63;;;;;;;;;;775972;180;818161;-64
2022/12/24 03:44:07;;;;;;;45.08;12.23;;;;;;;;;;771100;180;917462;-65
2022/12/24 03:46:33;;;;;;;158.20;19.90;;;;;;;;;;768230;181;918517;-64
2022/12/24 03:48:59;;;;;;;40.97;12.57;;;;;;;;;;766421;182;919144;-65
2022/12/24 03:51:25;;;;;;;262.70;26.73;;;;;;;;;;762933;182;919309;-64
2022/12/24 03:53:51;;;;;;;209.93;24.07;;;;;;;;;;764876;180;919253;-64
2022/12/24 03:56:17;;;;;;;174.40;22.53;;;;;;;;;;764444;182;923359;-64
2022/12/24 03:58:43;;;;;;;22.90;9.87;;;;;;;;;;772117;180;919418;-66
2022/12/24 04:01:08;;;;;;;250.73;27.15;;;;;;;;;;762893;180;920293;-64
2022/12/24 04:03:34;;;;;;;221.23;27.33;;;;;;;;;;764437;181;920957;-64
2022/12/24 04:06:01;;;;;;;372.60;32.77;;;;;;;;;;767711;183;918423;-64
2022/12/24 04:08:27;;;;;;;87.87;18.23;;;;;;;;;;766705;183;818329;-63
2022/12/24 04:10:53;;;;;;;175.87;25.20;;;;;;;;;;767203;178;918685;-64
2022/12/24 04:13:18;;;;;;;223.87;25.67;;;;;;;;;;771234;179;918367;-64
2022/12/24 04:15:44;;;;;;;113.93;16.97;;;;;;;;;;758514;184;919066;-63
2022/12/24 04:18:10;;;;;;;18.43;11.40;;;;;;;;;;768513;180;918189;-64
2022/12/24 04:20:36;;;;;;;229.27;26.23;;;;;;;;;;764022;183;813880;-63
2022/12/24 04:23:02;;;;;;;221.10;27.70;;;;;;;;;;779742;180;826166;-63
2022/12/24 04:25:28;;;;;;;265.90;32.30;;;;;;;;;;775175;180;918468;-64
2022/12/24 04:27:54;;;;;;;28.00;15.10;;;;;;;;;;770415;181;923261;-64
2022/12/24 04:30:19;;;;;;;179.47;24.90;;;;;;;;;;776901;181;816957;-64
2022/12/24 04:32:45;;;;;;;230.17;27.87;;;;;;;;;;769557;181;918937;-65
2022/12/24 04:35:11;;;;;;;36.20;14.30;;;;;;;;;;758066;181;919388;-63
2022/12/24 04:37:37;;;;;;;229.13;25.60;;;;;;;;;;763826;182;887159;-63
2022/12/24 04:40:03;;;;;;;343.47;32.77;;;;;;;;;;738832;189;918970;-63
2022/12/24 04:42:29;;;;;;;74.73;16.90;;;;;;;;;;747886;184;943824;-65
2022/12/24 04:44:55;;;;;;;352.07;34.93;;;;;;;;;;755456;184;914059;-65
2022/12/24 04:47:21;;;;;;;384.37;39.03;;;;;;;;;;762762;180;919850;-63
2022/12/24 04:49:47;;;;;;;373.07;34.67;;;;;;;;;;757647;184;918971;-64
2022/12/24 04:52:12;;;;;;;366.77;40.07;;;;;;;;;;765212;181;919847;-63
2022/12/24 04:54:38;;;;;;;285.77;29.03;;;;;;;;;;773573;181;915121;-62
2022/12/24 04:57:04;;;;;;;52.70;14.93;;;;;;;;;;760110;181;918488;-63
2022/12/24 04:59:30;;;;;;;214.43;25.00;;;;;;;;;;761730;181;921143;-65
2022/12/24 05:01:56;;;;;;;103.73;15.60;;;;;;;;;;774012;178;919727;-63
2022/12/24 05:04:22;;;;;;;338.17;28.73;;;;;;;;;;774947;179;816194;-65
2022/12/24 05:06:47;;;;;;;109.93;20.47;;;;;;;;;;772824;180;921561;-64
2022/12/24 05:09:13;;;;;;;70.17;13.90;;;;;;;;;;768945;180;918784;-63
2022/12/24 05:11:39;;;;;;;123.17;20.30;;;;;;;;;;766892;180;919349;-62
2022/12/24 05:14:05;;;;;;;142.27;21.80;;;;;;;;;;770704;181;923780;-64
2022/12/24 05:16:31;;;;;;;100.87;19.40;;;;;;;;;;765903;180;896192;-62
2022/12/24 05:18:57;;;;;;;182.03;31.13;;;;;;;;;;772970;180;920734;-64
2022/12/24 05:21:23;;;;;;;433.83;43.43;;;;;;;;;;767631;180;918861;-63
2022/12/24 05:26:26;;;;;;;384.70;35.50;;;;;;;;;;777676;180;922181;-66
2022/12/24 05:28:52;;;;;;;494.60;47.07;;;;;;;;;;770988;183;918724;-63
2022/12/24 05:31:18;;;;;;;482.87;44.60;;;;;;;;;;774257;180;919238;-62
2022/12/24 05:33:43;;;;;;;536.40;49.77;;;;;;;;;;770764;181;919812;-65
2022/12/24 05:36:09;;;;;;;400.57;39.20;;;;;;;;;;769371;181;922624;-65
2022/12/24 05:38:35;;;;;;;488.53;37.17;;;;;;;;;;757961;183;1024010;-62
2022/12/24 05:41:01;;;;;;;369.63;32.43;;;;;;;;;;757447;181;918522;-63
2022/12/24 05:43:27;;;;;;;134.10;17.80;;;;;;;;;;772984;181;919704;-64
2022/12/24 05:46:00;;;;;;;427.77;31.53;;;;;;;;;;758712;184;917617;-62
2022/12/24 05:48:26;;;;;;;292.87;24.87;;;;;;;;;;755908;182;920777;-63
2022/12/24 05:50:52;;;;;;;209.87;21.23;;;;;;;;;;759377;182;927441;-63
2022/12/24 05:53:18;;;;;;;298.77;23.80;;;;;;;;;;766568;183;816175;-62
2022/12/24 05:55:44;;;;;;;319.30;24.20;;;;;;;;;;762121;183;852607;-63
2022/12/24 05:58:10;;;;;;;352.60;25.27;;;;;;;;;;759578;182;919437;-62
2022/12/24 06:00:36;;;;;;;307.33;27.10;;;;;;;;;;756157;184;921582;-64
2022/12/24 06:03:01;;;;;;;273.23;25.57;;;;;;;;;;747461;184;917341;-62
2022/12/24 06:05:27;;;;;;;349.10;30.02;;;;;;;;;;765207;181;922171;-65
2022/12/24 06:07:53;;;;;;;419.03;32.40;;;;;;;;;;771127;181;817779;-62
2022/12/24 06:10:19;;;;;;;265.03;24.67;;;;;;;;;;770337;182;920096;-62
2022/12/24 06:12:45;;;;;;;337.03;26.10;;;;;;;;;;760849;183;920797;-63
2022/12/24 06:15:11;;;;;;;350.20;28.47;;;;;;;;;;761276;182;919692;-63
2022/12/24 06:17:37;;;;;;;270.67;24.60;;;;;;;;;;777260;180;870789;-64
2022/12/24 06:20:03;;;;;;;397.87;35.07;;;;;;;;;;773481;180;899695;-62
2022/12/24 06:22:28;;;;;;;343.43;28.10;;;;;;;;;;767099;180;945218;-63
2022/12/24 06:24:54;;;;;;;269.23;31.07;;;;;;;;;;774455;181;919065;-64
2022/12/24 06:27:20;;;;;;;402.10;31.33;;;;;;;;;;767200;181;919260;-64
2022/12/24 06:29:46;;;;;;;294.10;26.43;;;;;;;;;;768120;181;920864;-63
2022/12/24 06:32:12;;;;;;;360.33;29.03;;;;;;;;;;774292;180;818249;-63
2022/12/24 06:34:38;;;;;;;386.73;29.63;;;;;;;;;;765340;183;919250;-64
2022/12/24 06:37:04;;;;;;;341.63;32.43;;;;;;;;;;772496;180;916033;-65
2022/12/24 06:39:29;;;;;;;310.33;33.83;;;;;;;;;;769870;181;921798;-63
2022/12/24 06:41:55;;;;;;;377.17;28.10;;;;;;;;;;772672;180;916679;-65
2022/12/24 06:44:21;;;;;;;238.40;22.33;;;;;;;;;;767506;180;919323;-64
2022/12/24 06:46:47;;;;;;;72.20;15.45;;;;;;;;;;769410;181;919566;-64
2022/12/24 06:49:13;;;;;;;23.30;10.83;;;;;;;;;;773856;181;921861;-63
2022/12/24 06:51:39;;;;;;;24.33;11.27;;;;;;;;;;760759;182;919325;-63
2022/12/24 06:54:05;;;;;;;17.83;11.70;;;;;;;;;;757925;183;925393;-65
2022/12/24 06:56:31;;;;;;;30.42;12.85;;;;;;;;;;763443;184;921658;-65
2022/12/24 06:58:57;;;;;;;21.60;11.20;;;;;;;;;;755979;185;918812;-65
2022/12/24 07:01:23;;;;;;;19.27;10.37;;;;;;;;;;758135;183;918792;-64
2022/12/24 07:03:48;;;;;;;19.20;11.48;;;;;;;;;;756428;182;920583;-64
2022/12/24 07:06:15;;;;;;;48.60;11.87;;;;;;;;;;764850;183;919426;-62
2022/12/24 07:08:40;;;;;;;30.93;12.60;;;;;;;;;;769643;181;918741;-63
2022/12/24 07:11:06;;;;;;;19.50;11.93;;;;;;;;;;770678;181;918609;-64
2022/12/24 07:13:33;;;;;;;77.43;17.23;;;;;;;;;;769664;180;919591;-65
2022/12/24 07:15:58;;;;;;;110.57;18.77;;;;;;;;;;760974;183;919356;-63
2022/12/24 07:18:24;;;;;;;28.67;11.83;;;;;;;;;;761110;182;919537;-63
2022/12/24 07:20:49;;;;;;;20.73;9.63;;;;;;;;;;773128;180;912515;-63
2022/12/24 07:23:15;;;;;;;20.65;10.13;;;;;;;;;;769138;181;883999;-65
2022/12/24 07:25:41;;;;;;;16.40;10.27;;;;;;;;;;770630;178;926479;-63
2022/12/24 07:28:07;;;;;;;22.40;13.18;;;;;;;;;;774554;180;916058;-63
2022/12/24 07:30:33;;;;;;;29.40;13.90;;;;;;;;;;778354;180;813986;-63
2022/12/24 07:32:59;;;;;;;21.47;13.17;;;;;;;;;;767450;180;915448;-65
2022/12/24 07:35:24;;;;;;;352.25;35.20;;;;;;;;;;771640;180;915104;-64
2022/12/24 07:37:50;;;;;;;42.00;14.80;;;;;;;;;;773222;181;812873;-65
2022/12/24 07:40:16;;;;;;;21.93;11.83;;;;;;;;;;770605;180;919742;-63
2022/12/24 07:42:42;;;;;;;17.58;10.75;;;;;;;;;;770062;181;917110;-66
2022/12/24 07:45:08;;;;;;;44.83;12.63;;;;;;;;;;772807;181;917415;-65
2022/12/24 07:47:34;;;;;;;275.63;28.50;;;;;;;;;;762523;181;919129;-63
2022/12/24 07:50:00;;;;;;;135.97;18.43;;;;;;;;;;765006;181;918184;-65
2022/12/24 07:52:26;;;;;;;17.67;10.27;;;;;;;;;;763357;180;919520;-66
2022/12/24 07:54:52;;;;;;;18.07;10.23;;;;;;;;;;771430;180;919609;-63
2022/12/24 07:57:17;;;;;;;13.63;8.37;;;;;;;;;;772375;180;920005;-65
2022/12/24 07:59:43;;;;;;;12.20;9.43;;;;;;;;;;771784;181;918319;-66
2022/12/24 08:02:09;;;;;;;11.27;7.73;;;;;;;;;;778552;180;801081;-65
2022/12/24 08:04:35;;;;;;;13.13;8.13;;;;;;;;;;768754;180;920570;-65
2022/12/24 08:07:01;;;;;;;16.15;7.30;;;;;;;;;;767864;180;791871;-66
2022/12/24 08:09:27;;;;;;;13.47;8.40;;;;;;;;;;771022;180;919588;-65
2022/12/24 08:11:52;;;;;;;13.93;9.10;;;;;;;;;;769560;180;919586;-65
2022/12/24 08:14:18;;;;;;;14.90;9.97;;;;;;;;;;758929;183;918737;-63
2022/12/24 08:16:44;;;;;;;15.43;7.50;;;;;;;;;;764534;181;798335;-66
2022/12/24 08:19:10;;;;;;;12.97;8.40;;;;;;;;;;758697;182;919029;-63
2022/12/24 08:21:36;;;;;;;14.43;9.47;;;;;;;;;;759720;183;919063;-65
2022/12/24 08:24:02;;;;;;;14.30;10.13;;;;;;;;;;757091;183;914880;-63
2022/12/24 08:26:27;;;;;;;13.33;9.03;;;;;;;;;;765087;183;913745;-63
2022/12/24 08:28:53;;;;;;;9.73;7.60;;;;;;;;;;759705;183;919070;-63
2022/12/24 08:31:19;;;;;;;12.87;7.90;;;;;;;;;;758992;183;919104;-65
2022/12/24 08:33:45;;;;;;;10.07;6.63;;;;;;;;;;773567;180;819342;-63
2022/12/24 08:36:11;;;;;;;12.43;8.63;;;;;;;;;;768150;181;919256;-62
2022/12/24 08:38:37;;;;;;;9.97;6.27;;;;;;;;;;771539;178;921347;-62
2022/12/24 08:41:02;;;;;;;11.73;6.28;;;;;;;;;;763235;182;926804;-66
2022/12/24 08:43:28;;;;;;;12.00;6.70;;;;;;;;;;762484;182;916383;-63
2022/12/24 08:45:54;;;;;;;8.20;6.47;;;;;;;;;;760136;183;919320;-65
2022/12/24 08:48:20;;;;;;;8.40;5.90;;;;;;;;;;765267;183;631488;-64
2022/12/24 08:50:46;;;;;;;6.83;4.40;;;;;;;;;;769473;182;629017;-62
2022/12/24 08:53:12;;;;;;;6.23;4.40;;;;;;;;;;767224;182;619700;-63
2022/12/24 08:55:38;;;;;;;5.50;4.20;;;;;;;;;;761194;182;628670;-65
2022/12/24 08:58:03;;;;;;;7.57;4.20;;;;;;;;;;760282;182;616121;-67
2022/12/24 09:00:29;;;;;;;6.60;4.73;;;;;;;;;;772331;180;616526;-63
2022/12/24 09:02:55;;;;;;;6.57;4.40;;;;;;;;;;770119;180;879891;-63
2022/12/24 09:05:21;;;;;;;10.33;5.20;;;;;;;;;;775629;181;617699;-63
2022/12/24 09:07:47;;;;;;;6.70;4.70;;;;;;;;;;768065;180;798182;-65
2022/12/24 09:10:13;;;;;;;9.90;6.17;;;;;;;;;;767179;180;816357;-63
2022/12/24 09:12:38;;;;;;;10.93;6.00;;;;;;;;;;756235;183;919637;-63
2022/12/24 09:15:06;;;;;;;9.17;6.10;;;;;;;;;;754868;184;917499;-65
2022/12/24 09:17:31;;;;;;;11.50;6.35;;;;;;;;;;757366;183;921247;-66
2022/12/24 09:19:56;;;;;;;8.00;4.90;;;;;;;;;;756525;183;918656;-63
2022/12/24 09:22:22;;;;;;;5.90;3.93;;;;;;;;;;773441;180;907219;-63
2022/12/24 09:24:48;;;;;;;13.60;4.77;;;;;;;;;;764692;180;918675;-66
2022/12/24 09:27:14;;;;;;;7.60;5.20;;;;;;;;;;763083;181;918595;-65
2022/12/24 09:29:40;;;;;;;5.43;4.03;;;;;;;;;;764182;182;919165;-63
2022/12/24 09:32:06;;;;;;;6.77;4.90;;;;;;;;;;758355;183;919876;-63
2022/12/24 09:34:31;;;;;;;5.90;4.50;;;;;;;;;;760964;182;906290;-63
2022/12/24 09:36:59;;;;;;;8.50;4.77;;;;;;;;;;772414;180;918656;-65
2022/12/24 09:39:23;;;;;;;7.33;4.40;;;;;;;;;;761060;183;920574;-65
2022/12/24 09:41:55;;;;;;;8.27;4.00;;;;;;;;;;767704;181;917065;-63
2022/12/24 09:44:22;;;;;;;5.10;3.33;;;;;;;;;;766441;180;854547;-66
2022/12/24 09:46:47;;;;;;;6.47;3.80;;;;;;;;;;772794;181;636998;-64
2022/12/24 09:49:13;;;;;;;9.47;3.73;;;;;;;;;;767117;181;816711;-65
2022/12/24 09:51:40;;;;;;;5.17;3.30;;;;;;;;;;769434;180;919725;-64
2022/12/24 09:54:10;;;;;;;8.50;4.20;;;;;;;;;;759542;183;919228;-63
2022/12/24 09:56:36;;;;;;;7.47;4.20;;;;;;;;;;761910;184;918740;-63
2022/12/24 09:59:02;;;;;;;13.03;4.50;;;;;;;;;;764901;183;816917;-64
2022/12/24 10:01:29;;;;;;;15.17;3.90;;;;;;;;;;761900;182;928459;-64
2022/12/24 10:03:55;;;;;;;7.53;3.80;;;;;;;;;;766722;182;918159;-63
2022/12/24 10:06:20;;;;;;;6.43;3.95;;;;;;;;;;757401;183;919115;-63
2022/12/24 10:08:46;;;;;;;6.37;3.90;;;;;;;;;;771931;181;919548;-63
2022/12/24 10:11:13;;;;;;;9.67;3.93;;;;;;;;;;770463;181;917082;-65
2022/12/24 10:13:39;;;;;;;5.63;3.83;;;;;;;;;;765245;181;918995;-64
2022/12/24 10:16:17;;;;;;;12.47;4.37;;;;;;;;;;769976;181;919542;-64
2022/12/24 10:19:00;;;;;;;8.10;4.07;;;;;;;;;;771006;181;818638;-65
2022/12/24 10:21:26;;;;;;;7.90;3.60;;;;;;;;;;766503;181;916993;-64
2022/12/24 10:23:54;;;;;;;7.57;3.20;;;;;;;;;;764704;181;919022;-63
2022/12/24 10:26:22;;;;;;;6.43;4.03;;;;;;;;;;760066;183;920038;-64
2022/12/24 10:28:48;;;;;;;9.88;4.60;;;;;;;;;;773707;180;923866;-65
2022/12/24 10:31:14;;;;;;;12.47;5.20;;;;;;;;;;769034;180;918359;-63
2022/12/24 10:33:39;;;;;;;6.77;4.10;;;;;;;;;;769929;181;919432;-65
2022/12/24 10:36:05;;;;;;;7.95;4.68;;;;;;;;;;768766;181;918598;-65
2022/12/24 10:38:32;;;;;;;7.00;4.07;;;;;;;;;;766520;181;919491;-65
2022/12/24 10:40:57;;;;;;;7.40;3.00;;;;;;;;;;773039;181;920416;-65
2022/12/24 10:43:23;;;;;;;6.35;3.12;;;;;;;;;;769350;180;918865;-64
2022/12/24 10:45:49;;;;;;;7.03;3.17;;;;;;;;;;768899;181;919740;-64
2022/12/24 10:48:15;;;;;;;5.67;3.27;;;;;;;;;;770613;181;904615;-64
2022/12/24 10:50:40;;;;;;;5.53;3.03;;;;;;;;;;771447;177;901872;-65
2022/12/24 10:53:06;;;;;;;8.80;3.73;;;;;;;;;;766599;180;913705;-65
2022/12/24 10:55:32;;;;;;;8.73;3.05;;;;;;;;;;766785;181;915346;-65
2022/12/24 10:57:59;;;;;;;7.00;3.50;;;;;;;;;;768091;181;919160;-63
2022/12/24 11:00:25;;;;;;;4.03;2.90;;;;;;;;;;764992;181;919374;-64
2022/12/24 11:02:51;;;;;;;7.77;3.17;;;;;;;;;;768394;180;919549;-64
2022/12/24 11:05:22;;;;;;;9.13;3.37;;;;;;;;;;769010;180;817208;-63
2022/12/24 11:07:48;;;;;;;6.60;3.73;;;;;;;;;;768290;183;921122;-63
2022/12/24 11:10:14;;;;;;;3.97;2.50;;;;;;;;;;770959;180;918842;-63
2022/12/24 11:12:42;;;;;;;7.00;3.83;;;;;;;;;;769205;181;919447;-63
2022/12/24 11:15:06;;;;;;;6.33;2.80;;;;;;;;;;776720;181;899058;-63
2022/12/24 11:17:31;;;;;;;7.50;3.43;;;;;;;;;;770128;180;916268;-63
2022/12/24 11:19:58;;;;;;;7.43;3.37;;;;;;;;;;769007;180;912663;-63
2022/12/24 11:22:24;;;;;;;11.60;3.27;;;;;;;;;;775793;180;817805;-64
2022/12/24 11:24:58;;;;;;;7.80;2.70;;;;;;;;;;774153;181;883693;-63
2022/12/24 11:27:39;;;;;;;6.43;3.17;;;;;;;;;;769069;180;818426;-63
2022/12/24 11:30:20;;;;;;;7.00;3.57;;;;;;;;;;763018;182;921290;-63
2022/12/24 11:32:45;;;;;;;6.80;2.70;;;;;;;;;;766702;181;917681;-62
2022/12/24 11:35:16;;;;;;;7.53;3.90;;;;;;;;;;772421;180;621587;-63
2022/12/24 11:37:42;;;;;;;8.10;4.73;;;;;;;;;;773447;180;886326;-62
2022/12/24 11:40:25;;;;;;;11.17;4.50;;;;;;;;;;763371;181;820526;-62
2022/12/24 11:42:52;;;;;;;8.00;3.85;;;;;;;;;;767288;181;919505;-61
2022/12/24 11:45:17;;;;;;;6.07;3.30;;;;;;;;;;758762;181;2147910;-62
2022/12/24 11:47:43;;;;;;;5.63;3.20;;;;;;;;;;768184;181;941751;-62
2022/12/24 11:50:24;;;;;;;10.93;4.80;;;;;;;;;;773960;180;883009;-61
2022/12/24 11:52:53;;;;;;;9.33;3.90;;;;;;;;;;768608;183;867284;-61
2022/12/24 11:55:21;;;;;;;6.57;3.30;;;;;;;;;;769708;180;918705;-62
2022/12/24 11:57:47;;;;;;;7.13;3.60;;;;;;;;;;766267;180;912937;-62
2022/12/24 12:00:13;;;;;;;9.20;3.60;;;;;;;;;;771368;180;865760;-61
2022/12/24 12:02:39;;;;;;;11.20;3.63;;;;;;;;;;765624;181;874897;-62
2022/12/24 12:05:07;;;;;;;6.50;3.40;;;;;;;;;;767436;181;838378;-62
2022/12/24 12:07:33;;;;;;;10.87;4.43;;;;;;;;;;764178;181;916765;-61
2022/12/24 12:10:14;;;;;;;7.23;2.83;;;;;;;;;;772961;180;817645;-62
2022/12/24 12:12:40;;;;;;;9.30;3.30;;;;;;;;;;768233;180;916052;-62
2022/12/24 12:15:06;;;;;;;5.60;3.10;;;;;;;;;;770964;180;919203;-62
2022/12/24 12:17:34;;;;;;;8.73;2.77;;;;;;;;;;769516;180;915775;-62
2022/12/24 12:20:01;;;;;;;9.43;3.90;;;;;;;;;;773242;180;905298;-61
2022/12/24 12:22:27;;;;;;;6.83;3.83;;;;;;;;;;769346;180;916177;-62
2022/12/24 12:24:53;;;;;;;10.40;5.30;;;;;;;;;;769815;180;635171;-61
2022/12/24 12:27:20;;;;;;;8.83;4.77;;;;;;;;;;775661;180;811117;-60
2022/12/24 12:29:46;;;;;;;5.57;3.57;;;;;;;;;;765690;181;846041;-60
2022/12/24 12:32:12;;;;;;;6.47;3.43;;;;;;;;;;767030;180;820001;-60
2022/12/24 12:34:38;;;;;;;8.60;3.80;;;;;;;;;;767278;180;916088;-62
2022/12/24 12:37:19;;;;;;;7.83;3.27;;;;;;;;;;777656;181;636360;-60
2022/12/24 12:39:45;;;;;;;8.30;3.93;;;;;;;;;;767222;183;625615;-61
2022/12/24 12:42:14;;;;;;;8.27;3.37;;;;;;;;;;766278;182;721020;-61
2022/12/24 12:44:46;;;;;;;11.50;3.87;;;;;;;;;;764954;181;918348;-61
2022/12/24 12:47:27;;;;;;;6.70;3.00;;;;;;;;;;771888;181;817520;-61
2022/12/24 12:50:08;;;;;;;7.97;4.03;;;;;;;;;;770010;180;820136;-62
2022/12/24 12:52:37;;;;;;;9.50;3.83;;;;;;;;;;759732;181;639041;-60
2022/12/24 12:55:18;;;;;;;6.70;3.90;;;;;;;;;;776541;181;695338;-60
2022/12/24 12:57:44;;;;;;;8.00;4.00;;;;;;;;;;764657;183;824787;-62
2022/12/24 13:00:10;;;;;;;8.60;3.80;;;;;;;;;;770714;180;816751;-61
2022/12/24 13:02:56;;;;;;;8.13;4.40;;;;;;;;;;770826;180;637469;-62
2022/12/24 13:05:23;;;;;;;7.80;3.90;;;;;;;;;;756445;183;887528;-61
2022/12/24 13:07:50;;;;;;;11.00;4.30;;;;;;;;;;771572;181;888869;-63
2022/12/24 13:10:29;;;;;;;4.67;3.03;;;;;;;;;;766684;181;919303;-61
2022/12/24 13:13:00;;;;;;;13.90;4.40;;;;;;;;;;769906;180;852606;-61
2022/12/24 13:15:32;;;;;;;8.10;3.63;;;;;;;;;;768163;180;914040;-62
2022/12/24 13:18:01;;;;;;;7.90;4.17;;;;;;;;;;760102;183;814970;-62
2022/12/24 13:20:28;;;;;;;6.97;3.67;;;;;;;;;;774160;180;911292;-63
2022/12/24 13:22:59;;;;;;;8.93;4.77;;;;;;;;;;766768;181;813947;-60
2022/12/24 13:25:25;;;;;;;11.87;4.80;;;;;;;;;;765664;180;917689;-60
2022/12/24 13:27:51;;;;;;;10.23;4.77;;;;;;;;;;764805;180;917885;-61
2022/12/24 13:30:23;;;;;;;8.60;4.90;;;;;;;;;;774196;180;817699;-60
2022/12/24 13:32:49;;;;;;;12.77;4.87;;;;;;;;;;771320;180;918995;-61
2022/12/24 13:35:26;;;;;;;7.80;5.60;;;;;;;;;;766080;181;921616;-61
2022/12/24 13:37:52;;;;;;;8.57;4.47;;;;;;;;;;764529;181;919528;-60
2022/12/24 13:40:23;;;;;;;10.07;4.73;;;;;;;;;;772483;181;817787;-60
2022/12/24 13:43:05;;;;;;;8.93;3.77;;;;;;;;;;767363;183;821698;-61
2022/12/24 13:45:45;;;;;;;10.00;4.90;;;;;;;;;;768308;183;918605;-63
2022/12/24 13:48:12;;;;;;;20.53;10.53;;;;;;;;;;770605;183;907063;-60
2022/12/24 13:50:39;;;;;;;11.20;6.53;;;;;;;;;;773572;180;918117;-60
2022/12/24 13:53:05;;;;;;;7.97;4.50;;;;;;;;;;763750;182;938460;-60
2022/12/24 13:55:31;;;;;;;12.40;5.37;;;;;;;;;;766940;181;909331;-60
2022/12/24 13:57:57;;;;;;;10.53;6.07;;;;;;;;;;770224;180;916319;-62
2022/12/24 14:00:24;;;;;;;9.73;4.00;;;;;;;;;;770640;180;921271;-62
2022/12/24 14:02:53;;;;;;;10.80;4.22;;;;;;;;;;773091;180;916825;-61
2022/12/24 14:05:19;;;;;;;10.23;5.00;;;;;;;;;;759599;184;819438;-61
2022/12/24 14:07:46;;;;;;;6.63;4.20;;;;;;;;;;768674;180;920498;-60
2022/12/24 14:10:18;;;;;;;12.10;5.60;;;;;;;;;;764915;180;921461;-60
2022/12/24 14:12:44;;;;;;;8.03;4.70;;;;;;;;;;773220;180;815690;-60
2022/12/24 14:15:16;;;;;;;9.97;5.03;;;;;;;;;;762193;183;919432;-59
2022/12/24 14:17:42;;;;;;;18.50;4.70;;;;;;;;;;760941;183;913422;-60
2022/12/24 14:20:08;;;;;;;12.03;4.20;;;;;;;;;;762157;182;916196;-61
2022/12/24 14:22:37;;;;;;;17.03;5.20;;;;;;;;;;765535;182;920008;-60